Flight Track Log - Related Links

Times and Time Zones

All times are in EDT time to prevent confusion due to time zone crossing. See the EJA839 flight status page for this flight to view local times or setup timezone preferences in your user account.

Time Position Orientation Groundspeed Altitude Reporting Facility
EDT Latitude Longitude Course Direction KTS MPH feet Rate Location/Type
Sat 09:22:16 PM 42.4333 -87.8000 101° East 206 237 3,000  Level Chicago TRACON
Sat 09:23:22 PM 42.3692 -87.7667 159° South 225 259 6,400 2,929 Climbing Chicago Center
Sat 09:24:23 PM 42.3111 -87.7294 155° Southeast 251 289 9,200 2,878 Climbing Chicago Center
Sat 09:25:25 PM 42.2708 -87.6353 120° Southeast 290 334 12,300 3,220 Climbing Chicago Center
Sat 09:26:26 PM 42.2728 -87.4872 89° East 326 375 15,800 2,951 Climbing Chicago Center
Sat 09:27:00 PM 42.2890 -87.1562 101° East  Level FlightAware Approximate
Sat 09:27:27 PM 42.2750 -87.3561 89° East 345 397 18,300  Level Chicago Center
Sat 09:28:28 PM 42.2767 -87.2200 89° East 358 412 21,000 2,361 Climbing Chicago Center
Sat 09:29:29 PM 42.2794 -87.0794 88° East 371 427 23,100 2,066 Climbing Chicago Center
Sat 09:30:30 PM 42.2806 -86.9286 89° East 395 455 25,200 2,016 Climbing Chicago Center
Sat 09:31:31 PM 42.2822 -86.7767 89° East 404 465 27,200 1,983 Climbing Chicago Center
Sat 09:32:31 PM 42.2847 -86.6094 89° East 420 483 29,200 1,934 Climbing Chicago Center
Sat 09:33:32 PM 42.2869 -86.4489 89° East 427 491 31,100 1,820 Climbing Chicago Center
Sat 09:34:33 PM 42.2875 -86.2886 90° East 428 493 32,900 1,770 Climbing Chicago Center
Sat 09:35:34 PM 42.2889 -86.1292 89° East 425 489 34,700 1,672 Climbing Chicago Center
Sat 09:36:35 PM 42.2900 -85.9858 89° East 419 482 36,300 1,623 Climbing Chicago Center
Sat 09:37:36 PM 42.2903 -85.8381 90° East 402 463 38,000 1,426 Climbing Chicago Center
Sat 09:38:37 PM 42.2900 -85.6667 90° East 387 445 39,200 934 Climbing Chicago Center
Sat 09:39:38 PM 42.2911 -85.5228 89° East 386 444 39,900 639 Climbing Chicago Center
Sat 09:40:39 PM 42.2900 -85.3767 91° East 389 448 40,500 532 Climbing Chicago Center
Sat 09:40:57 PM 42.2914 -85.3306 88° East 386 444 40,600 385 Climbing Cleveland Center
Sat 09:41:57 PM 42.2911 -85.1817 90° East 391 450 41,000 200 Climbing Cleveland Center
Sat 09:42:57 PM 42.2931 -85.0272 89° East 396 456 41,000  Level Cleveland Center
Sat 09:43:57 PM 42.2908 -84.8642 91° East 412 474 41,000  Level Cleveland Center
Sat 09:44:57 PM 42.2925 -84.7069 89° East 424 488 41,000  Level Cleveland Center
Sat 09:45:57 PM 42.2858 -84.5381 93° East 435 501 41,000  Level Cleveland Center
Sat 09:46:57 PM 42.2997 -84.3706 84° East 441 507 41,000  Level Cleveland Center
Sat 09:47:57 PM 42.3219 -84.2033 80° East 446 513 41,000  Level Cleveland Center
Sat 09:48:57 PM 42.3458 -84.0333 79° East 451 519 41,000  Level Cleveland Center
Sat 09:49:57 PM 42.3697 -83.8631 79° East 451 519 41,000  Level Cleveland Center
Sat 09:50:57 PM 42.3953 -83.6928 78° East 458 527 41,000  Level Cleveland Center
Sat 09:51:57 PM 42.4097 -83.5361 83° East 458 527 41,000  Level Cleveland Center
Sat 09:52:57 PM 42.4161 -83.3619 87° East 463 533 41,000  Level Cleveland Center
Sat 09:53:57 PM 42.4228 -83.1739 87° East 458 527 41,000  Level Cleveland Center
Sat 09:54:57 PM 42.4264 -83.0022 88° East 458 527 41,000  Level Cleveland Center
Sat 09:55:57 PM 42.4342 -82.8253 87° East 458 527 41,000  Level Cleveland Center
Sat 09:56:57 PM 42.4375 -82.6511 88° East 458 527 41,000  Level Cleveland Center
Sat 09:57:57 PM 42.4425 -82.4767 88° East 458 527 41,000  Level Cleveland Center
Sat 09:58:57 PM 42.4494 -82.2997 87° East 458 527 41,000  Level Cleveland Center
Sat 09:59:57 PM 42.4539 -82.1253 88° East 458 527 41,000  Level Cleveland Center
Sat 10:00:57 PM 42.4561 -81.9508 89° East 458 527 41,000  Level Cleveland Center
Sat 10:01:57 PM 42.4622 -81.7764 87° East 458 527 41,000  Level Cleveland Center
Sat 10:02:57 PM 42.4661 -81.5992 88° East 458 527 41,000  Level Cleveland Center
Sat 10:03:57 PM 42.4675 -81.4247 89° East 460 529 41,000  Level Cleveland Center
Sat 10:04:57 PM 42.4728 -81.2728 87° East 460 529 41,000  Level Cleveland Center
Sat 10:05:57 PM 42.4758 -81.1011 89° East 460 529 41,000  Level Cleveland Center
Sat 10:06:57 PM 42.4783 -80.9239 89° East 460 529 41,000  Level Cleveland Center
Sat 10:07:57 PM 42.4789 -80.7519 90° East 460 529 41,000  Level Cleveland Center
Sat 10:08:57 PM 42.4811 -80.5803 89° East 455 524 41,000  Level Cleveland Center
Sat 10:09:57 PM 42.4850 -80.3889 88° East 455 524 41,000  Level Cleveland Center
Sat 10:10:57 PM 42.4867 -80.2172 89° East 455 524 41,000  Level Cleveland Center
Sat 10:11:57 PM 42.4881 -80.0453 89° East 455 524 41,000  Level Cleveland Center
Sat 10:12:57 PM 42.4914 -79.8736 88° East 455 524 41,000  Level Cleveland Center
Sat 10:13:57 PM 42.4903 -79.6992 90° East 455 524 41,000  Level Cleveland Center
Sat 10:14:57 PM 42.4928 -79.5272 89° East 455 524 41,000  Level Cleveland Center
Sat 10:15:57 PM 42.4933 -79.3528 90° East 455 524 41,000  Level Cleveland Center
Sat 10:16:57 PM 42.4997 -79.1808 87° East 455 524 41,000  Level Cleveland Center
Sat 10:17:57 PM 42.5100 -79.0086 85° East 461 531 41,000  Level Cleveland Center
Sat 10:18:57 PM 42.5219 -78.8336 85° East 466 536 41,000  Level Cleveland Center
Sat 10:19:57 PM 42.5339 -78.6586 85° East 466 536 41,000  Level Cleveland Center
Sat 10:20:57 PM 42.5436 -78.5006 85° East 467 537 41,000  Level Cleveland Center
Sat 10:21:57 PM 42.5567 -78.3114 85° East 462 532 41,000  Level Cleveland Center
Sat 10:22:57 PM 42.5658 -78.1503 86° East 462 532 41,000  Level Cleveland Center
Sat 10:23:57 PM 42.5767 -77.9778 85° East 462 532 41,000  Level Cleveland Center
Sat 10:24:57 PM 42.5869 -77.7856 86° East 462 532 41,000  Level Cleveland Center
Sat 10:25:57 PM 42.5972 -77.6131 85° East 462 532 41,000  Level Cleveland Center
Sat 10:26:57 PM 42.6039 -77.4717 86° East 462 532 41,000  Level Cleveland Center
Sat 10:29:24 PM 42.6297 -77.0011 86° East 459 528 41,000  Level Boston Center
Sat 10:30:24 PM 42.6389 -76.8267 86° East 459 528 41,000  Level Boston Center
Sat 10:31:24 PM 42.6475 -76.6494 86° East 459 528 41,000  Level Boston Center
Sat 10:32:24 PM 42.6561 -76.4722 86° East 459 528 41,000  Level Boston Center
Sat 10:33:24 PM 42.6644 -76.2919 86° East 459 528 41,000 -100 Level Boston Center
Sat 10:34:24 PM 42.6633 -76.1364 91° East 459 528 40,800 -600 Descending Boston Center
Sat 10:35:24 PM 42.6608 -75.9528 91° East 464 534 39,800 -1,100 Descending Boston Center
Sat 10:36:24 PM 42.6581 -75.7689 91° East 476 548 38,600 -1,100 Descending Boston Center
Sat 10:37:24 PM 42.6550 -75.5825 91° East 487 560 37,600 -800 Descending Boston Center
Sat 10:38:24 PM 42.6514 -75.4014 91° East 487 560 37,000 -550 Descending Boston Center
Sat 10:39:24 PM 42.6478 -75.2178 91° East 482 555 36,500 -1,300 Descending Boston Center
Sat 10:40:24 PM 42.6461 -75.0258 91° East 488 562 34,400 -2,300 Descending Boston Center
Sat 10:41:24 PM 42.6417 -74.8533 92° East 483 556 31,900 -2,550 Descending Boston Center
Sat 10:42:24 PM 42.6369 -74.6669 92° East 478 550 29,300 -1,450 Descending Boston Center
Sat 10:43:24 PM 42.6322 -74.4806 92° East 478 550 29,000 -450 Descending Boston Center
Sat 10:44:24 PM 42.6269 -74.2997 92° East 483 556 28,400 -500 Descending Boston Center
Sat 10:45:24 PM 42.6214 -74.1161 92° East 478 550 28,000 -200 Descending Boston Center
Sat 10:46:24 PM 42.6158 -73.9269 92° East 484 557 28,000  Level Boston Center
Sat 10:47:24 PM 42.6097 -73.7406 92° East 489 563 28,000  Level Boston Center
Sat 10:48:24 PM 42.6075 -73.5486 91° East 500 575 28,000  Level Boston Center
Sat 10:49:24 PM 42.6008 -73.3625 93° East 500 575 28,000  Level Boston Center
Sat 10:50:24 PM 42.5939 -73.1650 93° East 508 585 28,000 -200 Level Boston Center
Sat 10:51:24 PM 42.5867 -72.9758 93° East 508 585 27,600 -800 Descending Boston Center
Sat 10:52:24 PM 42.5769 -72.7953 94° East 495 570 26,400 -1,300 Descending Boston Center
Sat 10:53:24 PM 42.5711 -72.6514 93° East 490 564 25,000 -2,400 Descending Boston Center
Sat 10:54:24 PM 42.5631 -72.4372 93° East 475 547 21,600 -3,700 Descending Boston Center
Sat 10:55:24 PM 42.5567 -72.2681 93° East 442 509 17,600 -3,800 Descending Boston Center
Sat 10:56:24 PM 42.5481 -72.1272 95° East 412 474 14,000 -3,800 Descending Boston Center
Sat 10:57:24 PM 42.5369 -71.9694 95° East 400 460 10,000 -3,250 Descending Boston Center
Sat 10:58:24 PM 42.5261 -71.8597 98° East 350 403 7,500 -2,000 Descending Boston Center
Sat 10:59:24 PM 42.5169 -71.7414 96° East 304 350 6,000 -950 Descending Boston Center
Sat 11:00:24 PM 42.5122 -71.6431 94° East 288 331 5,600 -732 Descending Boston Center
Sat 11:00:46 PM 42.5167 -71.5833 84° East 293 337 5,000 -1,432 Descending KA90
Sat 11:01:52 PM 42.5167 -71.4667 90° East 279 321 3,500 -952 Descending KA90
Sat 11:02:52 PM 42.5167 -71.3833 90° East 258 297 3,000 -276 Descending KA90
Sat 11:04:24 PM 42.5108 -71.2458 93° East 238 274 2,800 1,184 Descending Boston Center
Sat 11:05:24 PM 42.5097 -71.1531 91° East 238 274 6,000 1,600 Climbing Boston Center
Sat 11:06:24 PM 42.5089 -71.0628 91° East 238 274 6,000  Level Boston Center
Sat 11:07:24 PM 42.5075 -70.9700 91° East 238 274 6,000  Level Boston Center
Sat 11:08:24 PM 42.5072 -70.9333 91° East 238 274 6,000  Level Boston Center
Sat 11:10:24 PM 42.5072 -70.9333 312° West 238 274 6,000  Level Boston Center
Sat 11:12:24 PM 42.5072 -70.9333 312° West 238 274 6,000  Level Boston Center
Sat 11:14:00 PM 42.4780 -71.1867 261° West  Level FlightAware Approximate

Login

Don't have an account? Register now (free) for customized features, flight alerts, and more!